createdAt,value
2022-10-02T00:00:40.635Z,86.60
2022-10-02T00:03:19.208Z,86.30
2022-10-02T00:06:16.601Z,86.00
2022-10-02T00:08:43.931Z,85.60
2022-10-02T00:11:24.699Z,85.60
2022-10-02T00:14:00.425Z,85.30
2022-10-02T00:16:33.653Z,85.00
2022-10-02T00:19:01.175Z,84.70
2022-10-02T00:22:01.332Z,84.00
2022-10-02T00:24:38.647Z,84.00
2022-10-02T00:27:15.574Z,83.80
2022-10-02T00:29:49.306Z,83.80
2022-10-02T00:32:52.913Z,84.50
2022-10-02T00:35:25.555Z,84.70
2022-10-02T00:38:05.296Z,85.20
2022-10-02T00:41:09.751Z,85.40
2022-10-02T00:43:52.108Z,85.00
2022-10-02T00:46:38.006Z,84.60
2022-10-02T00:49:34.385Z,84.50
2022-10-02T00:52:16.435Z,84.70
2022-10-02T00:55:16.935Z,84.90
2022-10-02T00:57:58.627Z,85.10
2022-10-02T01:00:26.453Z,84.70
2022-10-02T01:03:39.887Z,84.50
2022-10-02T01:06:12.684Z,84.50
2022-10-02T01:08:39.706Z,84.60
2022-10-02T01:11:08.366Z,85.10
2022-10-02T01:13:35.257Z,85.30
2022-10-02T01:16:04.375Z,84.70
2022-10-02T01:18:31.828Z,84.80
2022-10-02T01:21:26.228Z,85.10
2022-10-02T01:24:09.966Z,85.00
2022-10-02T01:26:37.218Z,84.80
2022-10-02T01:29:07.527Z,85.50
2022-10-02T01:31:36.315Z,85.60
2022-10-02T01:34:04.139Z,85.90
2022-10-02T01:36:33.874Z,86.60
2022-10-02T01:39:01.520Z,86.20
2022-10-02T01:41:33.392Z,86.40
2022-10-02T01:44:02.443Z,86.60
2022-10-02T01:46:50.056Z,86.70
2022-10-02T01:49:47.270Z,87.00
2022-10-02T01:52:34.287Z,86.90
2022-10-02T01:55:27.138Z,86.60
2022-10-02T01:58:10.204Z,87.10
2022-10-02T02:01:08.130Z,87.80
2022-10-02T02:03:46.532Z,88.00
2022-10-02T02:06:28.393Z,87.60
2022-10-02T02:09:24.581Z,87.60
2022-10-02T02:12:02.770Z,87.90
2022-10-02T02:14:38.504Z,87.90
2022-10-02T02:17:26.508Z,88.00
2022-10-02T02:20:09.095Z,88.00
2022-10-02T02:22:45.128Z,87.90
2022-10-02T02:25:22.320Z,87.40
2022-10-02T02:27:53.845Z,86.80
2022-10-02T02:30:23.072Z,86.60
2022-10-02T02:32:55.731Z,87.00
2022-10-02T02:35:37.856Z,87.10
2022-10-02T02:38:31.102Z,87.00
2022-10-02T02:41:19.513Z,87.20
2022-10-02T02:44:02.780Z,87.20
2022-10-02T02:47:01.646Z,87.20
2022-10-02T02:49:39.441Z,87.90
2022-10-02T02:52:10.113Z,87.90
2022-10-02T02:54:51.499Z,87.80
2022-10-02T02:57:25.187Z,87.90
2022-10-02T02:59:52.985Z,87.90
2022-10-02T03:02:19.842Z,89.20
2022-10-02T03:04:49.156Z,88.20
2022-10-02T03:07:17.725Z,88.60
2022-10-02T03:10:09.063Z,88.40
2022-10-02T03:12:45.462Z,88.70
2022-10-02T03:15:21.279Z,88.40
2022-10-02T03:18:25.978Z,88.90
2022-10-02T03:21:22.567Z,88.60
2022-10-02T03:24:18.516Z,89.30
2022-10-02T03:27:01.350Z,89.10
2022-10-02T03:29:44.770Z,89.20
2022-10-02T03:32:14.690Z,89.00
2022-10-02T03:34:41.483Z,89.10
2022-10-02T03:37:08.348Z,89.20
2022-10-02T03:39:37.848Z,89.30
2022-10-02T03:42:04.630Z,89.10
2022-10-02T03:44:31.459Z,89.20
2022-10-02T03:46:58.300Z,89.00
2022-10-02T03:49:27.566Z,89.50
2022-10-02T03:51:54.377Z,89.60
2022-10-02T03:54:22.224Z,89.50
2022-10-02T03:56:58.881Z,89.30
2022-10-02T03:59:34.611Z,90.10
2022-10-02T04:02:09.441Z,90.30
2022-10-02T04:04:46.454Z,90.30
2022-10-02T04:07:33.067Z,89.40
2022-10-02T04:10:22.492Z,89.40
2022-10-02T04:12:52.357Z,89.20
2022-10-02T04:15:48.522Z,89.00
2022-10-02T04:18:23.903Z,88.90
2022-10-02T04:20:58.347Z,88.90
2022-10-02T04:23:34.394Z,88.70
2022-10-02T04:26:11.386Z,88.60
2022-10-02T04:28:42.578Z,88.70
2022-10-02T04:31:13.072Z,88.50
2022-10-02T04:33:40.671Z,88.00
2022-10-02T04:36:28.093Z,87.80
2022-10-02T04:39:20.722Z,87.10
2022-10-02T04:42:17.056Z,86.50
2022-10-02T04:45:04.167Z,85.60
2022-10-02T04:47:56.024Z,85.20
2022-10-02T04:50:32.133Z,84.80
2022-10-02T04:53:27.513Z,84.10
2022-10-02T04:55:57.355Z,83.40
2022-10-02T04:58:43.178Z,83.40
2022-10-02T05:01:23.954Z,83.20
2022-10-02T05:04:21.638Z,82.20
2022-10-02T05:07:19.381Z,82.00
2022-10-02T05:09:53.122Z,81.70
2022-10-02T05:12:31.176Z,82.20
2022-10-02T05:15:09.953Z,82.10
2022-10-02T05:17:45.571Z,82.30
2022-10-02T05:20:39.037Z,82.60
2022-10-02T05:23:27.861Z,82.70
2022-10-02T05:26:21.916Z,82.30
2022-10-02T05:29:08.899Z,82.60
2022-10-02T05:32:15.676Z,82.90
2022-10-02T05:34:51.528Z,83.20
2022-10-02T05:37:29.521Z,83.30
2022-10-02T05:40:12.562Z,83.40
2022-10-02T05:42:54.323Z,83.30
2022-10-02T05:45:46.690Z,83.30
2022-10-02T05:48:23.247Z,82.80
2022-10-02T05:50:56.247Z,83.00
2022-10-02T05:53:58.273Z,83.30
2022-10-02T05:56:33.421Z,82.60
2022-10-02T05:59:14.061Z,82.40
2022-10-02T06:01:45.700Z,81.70
2022-10-02T06:04:20.105Z,81.20
2022-10-02T06:06:53.676Z,79.60
2022-10-02T06:09:28.324Z,79.00
2022-10-02T06:12:01.376Z,78.10
2022-10-02T06:14:39.337Z,78.60
2022-10-02T06:17:13.232Z,80.10
2022-10-02T06:19:57.880Z,81.80
2022-10-02T06:22:47.158Z,82.90
2022-10-02T06:25:18.174Z,83.00
2022-10-02T06:27:53.944Z,82.80
2022-10-02T06:30:23.914Z,82.60
2022-10-02T06:33:01.975Z,81.90
2022-10-02T06:35:29.050Z,82.20
2022-10-02T06:38:19.191Z,81.70
2022-10-02T06:40:57.939Z,81.30
2022-10-02T06:43:40.553Z,81.00
2022-10-02T06:46:17.916Z,81.10
2022-10-02T06:48:58.564Z,80.70
2022-10-02T06:51:35.222Z,81.00
2022-10-02T06:54:11.935Z,81.20
2022-10-02T06:56:51.944Z,81.70
2022-10-02T07:00:00.997Z,81.30
2022-10-02T07:02:54.887Z,80.90
2022-10-02T07:05:55.676Z,81.20
2022-10-02T07:08:32.156Z,81.90
2022-10-02T07:11:26.809Z,81.90
2022-10-02T07:14:00.268Z,82.10
2022-10-02T07:16:34.568Z,82.30
2022-10-02T07:19:33.468Z,82.60
2022-10-02T07:22:44.632Z,82.80
2022-10-02T07:25:29.370Z,83.00
2022-10-02T07:28:01.307Z,83.00
2022-10-02T07:30:53.864Z,83.60
2022-10-02T07:33:47.897Z,83.80
2022-10-02T07:36:36.965Z,83.30
2022-10-02T07:39:33.140Z,83.00
2022-10-02T07:42:27.806Z,82.80
2022-10-02T07:45:04.204Z,82.70
2022-10-02T07:47:52.550Z,82.20
2022-10-02T07:50:32.543Z,81.00
2022-10-02T07:53:13.601Z,80.60
2022-10-02T07:55:48.528Z,80.00
2022-10-02T07:58:35.412Z,79.50
2022-10-02T08:01:06.067Z,79.30
2022-10-02T08:03:41.867Z,77.80
2022-10-02T08:06:08.997Z,76.70
2022-10-02T08:09:15.936Z,76.00
2022-10-02T08:11:49.888Z,74.70
2022-10-02T08:14:40.644Z,73.70
2022-10-02T08:17:27.586Z,72.80
2022-10-02T08:20:00.245Z,72.50
2022-10-02T08:22:36.658Z,71.20
2022-10-02T08:25:16.058Z,70.60
2022-10-02T08:27:45.985Z,70.30
2022-10-02T08:30:14.487Z,68.40
2022-10-02T08:32:41.409Z,67.60
2022-10-02T08:35:22.077Z,66.60
2022-10-02T08:38:12.656Z,64.80
2022-10-02T08:40:57.722Z,64.20
2022-10-02T08:43:53.862Z,64.10
2022-10-02T08:47:02.333Z,63.30
2022-10-02T08:49:41.881Z,63.30
2022-10-02T08:52:17.839Z,63.40
2022-10-02T08:55:08.197Z,62.40
2022-10-02T08:57:56.749Z,61.40
2022-10-02T09:00:58.764Z,59.80
2022-10-02T09:03:30.751Z,60.40
2022-10-02T09:06:38.976Z,60.90
2022-10-02T09:09:43.004Z,60.00
2022-10-02T09:12:27.907Z,60.30
2022-10-02T09:15:13.563Z,60.40
2022-10-02T09:17:50.764Z,59.50
2022-10-02T09:20:39.533Z,58.90
2022-10-02T09:23:24.919Z,58.20
2022-10-02T09:26:21.111Z,57.90
2022-10-02T09:29:23.059Z,58.30
2022-10-02T09:32:09.530Z,57.40
2022-10-02T09:35:10.411Z,57.60
2022-10-02T09:38:05.438Z,57.50
2022-10-02T09:40:35.529Z,57.30
2022-10-02T09:43:12.399Z,57.30
2022-10-02T09:46:07.496Z,57.30
2022-10-02T09:48:45.386Z,57.30
2022-10-02T09:51:29.847Z,57.30
2022-10-02T09:54:11.831Z,58.30
2022-10-02T09:57:03.964Z,59.50
2022-10-02T10:00:00.881Z,59.30
2022-10-02T10:02:45.599Z,59.30
2022-10-02T10:05:13.042Z,58.70
2022-10-02T10:07:45.138Z,57.50
2022-10-02T10:10:31.239Z,56.50
2022-10-02T10:13:32.667Z,56.10
2022-10-02T10:16:19.424Z,56.40
2022-10-02T10:19:23.820Z,57.30
2022-10-02T10:21:56.159Z,58.20
2022-10-02T10:24:45.136Z,59.30
2022-10-02T10:27:59.077Z,60.50
2022-10-02T10:30:44.529Z,62.40
2022-10-02T10:33:48.952Z,60.40
2022-10-02T10:37:01.598Z,62.00
2022-10-02T10:40:10.902Z,62.00
2022-10-02T10:43:07.043Z,61.60
2022-10-02T10:45:59.246Z,59.70
2022-10-02T10:49:02.691Z,57.20
2022-10-02T10:51:33.737Z,57.30
2022-10-02T10:54:28.332Z,56.90
2022-10-02T10:57:10.776Z,56.90
2022-10-02T11:00:02.281Z,56.70
2022-10-02T11:02:54.470Z,58.10
2022-10-02T11:05:35.001Z,58.60
2022-10-02T11:08:37.081Z,58.90
2022-10-02T11:11:21.692Z,58.80
2022-10-02T11:14:34.624Z,57.80
2022-10-02T11:17:22.562Z,57.60
2022-10-02T11:20:00.038Z,56.90
2022-10-02T11:23:08.334Z,57.10
2022-10-02T11:26:16.512Z,60.20
2022-10-02T11:29:04.454Z,61.90
2022-10-02T11:31:57.505Z,64.50
2022-10-02T11:35:06.776Z,66.30
2022-10-02T11:37:48.724Z,66.10
2022-10-02T11:40:34.923Z,67.60
2022-10-02T11:43:14.390Z,67.80
2022-10-02T11:46:12.129Z,68.60
2022-10-02T11:49:03.431Z,67.10
2022-10-02T11:51:50.910Z,67.70
2022-10-02T11:54:35.740Z,68.00
2022-10-02T11:57:08.948Z,65.60
2022-10-02T11:59:54.548Z,65.30
2022-10-02T12:02:40.542Z,63.80
2022-10-02T12:05:10.096Z,62.50
2022-10-02T12:07:48.122Z,60.70
2022-10-02T12:10:39.890Z,61.40
2022-10-02T12:13:21.117Z,62.10
2022-10-02T12:16:03.617Z,61.00
2022-10-02T12:18:36.513Z,61.70
2022-10-02T12:21:21.740Z,60.30
2022-10-02T12:24:32.314Z,59.20
2022-10-02T12:27:22.180Z,57.90
2022-10-02T12:30:20.184Z,56.50
2022-10-02T12:33:09.611Z,54.90
2022-10-02T12:36:02.602Z,54.80
2022-10-02T12:38:44.409Z,54.90
2022-10-02T12:41:46.215Z,56.00
2022-10-02T12:44:58.210Z,57.80
2022-10-02T12:47:31.343Z,52.80
2022-10-02T12:50:25.014Z,53.90
2022-10-02T12:53:07.101Z,55.00
2022-10-02T12:56:01.338Z,50.20
2022-10-02T12:58:50.053Z,33.20
2022-10-02T13:01:50.485Z,21.90
2022-10-02T13:04:45.251Z,24.90
2022-10-02T13:07:31.011Z,28.60
2022-10-02T13:10:30.623Z,37.80
2022-10-02T13:13:31.474Z,42.70
2022-10-02T13:16:13.403Z,44.30
2022-10-02T13:18:57.649Z,38.60
2022-10-02T13:21:42.674Z,40.30
2022-10-02T13:24:20.991Z,42.80
2022-10-02T13:27:20.003Z,43.90
2022-10-02T13:30:23.958Z,43.60
2022-10-02T13:33:06.277Z,40.40
2022-10-02T13:35:53.173Z,42.30
2022-10-02T13:38:53.143Z,42.10
2022-10-02T13:41:39.056Z,42.80
2022-10-02T13:44:34.417Z,43.90
2022-10-02T13:47:22.597Z,44.00
2022-10-02T13:50:24.758Z,45.40
2022-10-02T13:52:54.509Z,44.70
2022-10-02T13:55:58.159Z,45.60
2022-10-02T13:58:50.781Z,40.10
2022-10-02T14:01:38.567Z,39.20
2022-10-02T14:04:30.045Z,39.50
2022-10-02T14:07:30.928Z,39.40
2022-10-02T14:10:19.060Z,29.40
2022-10-02T14:12:54.847Z,27.70
2022-10-02T14:15:30.392Z,30.00
2022-10-02T14:18:35.390Z,24.90
2022-10-02T14:21:37.361Z,26.70
2022-10-02T14:24:04.660Z,24.70
2022-10-02T14:27:12.357Z,20.00
2022-10-02T14:30:03.576Z,15.80
2022-10-02T14:32:50.937Z,18.90
2022-10-02T14:35:32.931Z,17.40
2022-10-02T14:38:24.519Z,13.70
2022-10-02T14:40:54.523Z,17.90
2022-10-02T14:43:52.569Z,24.10
2022-10-02T14:46:25.378Z,28.80
2022-10-02T14:49:18.891Z,32.80
2022-10-02T14:52:15.186Z,35.10
2022-10-02T14:55:07.167Z,37.10
2022-10-02T14:58:01.334Z,38.20
2022-10-02T15:00:50.084Z,40.10
2022-10-02T15:03:49.063Z,41.00
2022-10-02T15:06:31.911Z,41.70
2022-10-02T15:09:21.218Z,42.40
2022-10-02T15:12:06.626Z,42.30
2022-10-02T15:14:58.689Z,43.50
2022-10-02T15:18:00.402Z,44.40
2022-10-02T15:20:51.439Z,45.20
2022-10-02T15:23:36.939Z,45.80
2022-10-02T15:26:27.982Z,46.20
2022-10-02T15:29:29.583Z,46.00
2022-10-02T15:32:23.973Z,46.20
2022-10-02T15:34:59.886Z,46.20
2022-10-02T15:37:30.431Z,45.60
2022-10-02T15:40:06.150Z,45.50
2022-10-02T15:42:49.394Z,45.20
2022-10-02T15:45:35.904Z,45.20
2022-10-02T15:48:38.495Z,45.60
2022-10-02T15:51:19.496Z,46.50
2022-10-02T15:54:14.576Z,47.10
2022-10-02T15:56:53.455Z,47.60
2022-10-02T15:59:44.671Z,48.30
2022-10-02T16:02:11.447Z,49.50
2022-10-02T16:04:55.509Z,50.50
2022-10-02T16:08:01.537Z,51.00
2022-10-02T16:10:48.504Z,51.80
2022-10-02T16:13:33.162Z,52.50
2022-10-02T16:16:19.079Z,53.40
2022-10-02T16:19:24.962Z,54.30
2022-10-02T16:22:17.774Z,55.50
2022-10-02T16:24:58.291Z,56.30
2022-10-02T16:27:48.831Z,56.80
2022-10-02T16:30:24.658Z,57.40
2022-10-02T16:32:54.978Z,57.90
2022-10-02T16:35:43.738Z,58.50
2022-10-02T16:38:15.761Z,59.10
2022-10-02T16:40:52.809Z,59.50
2022-10-02T16:43:48.952Z,59.90
2022-10-02T16:46:31.629Z,60.00
2022-10-02T16:49:11.267Z,60.10
2022-10-02T16:51:56.497Z,60.80
2022-10-02T16:54:37.920Z,61.50
2022-10-02T16:57:29.547Z,62.30
2022-10-02T17:00:14.111Z,63.00
2022-10-02T17:03:15.184Z,63.20
2022-10-02T17:05:51.532Z,63.60
2022-10-02T17:08:55.714Z,64.10
2022-10-02T17:11:34.864Z,64.90
2022-10-02T17:14:25.178Z,64.90
2022-10-02T17:16:52.448Z,65.60
2022-10-02T17:19:23.257Z,66.40
2022-10-02T17:21:59.544Z,67.20
2022-10-02T17:25:12.131Z,67.10
2022-10-02T17:27:51.782Z,68.40
2022-10-02T17:30:27.078Z,68.70
2022-10-02T17:33:02.229Z,69.60
2022-10-02T17:35:48.962Z,69.90
2022-10-02T17:38:24.225Z,70.60
2022-10-02T17:41:02.562Z,70.70
2022-10-02T17:43:35.355Z,71.20
2022-10-02T17:46:17.661Z,71.30
2022-10-02T17:49:14.314Z,72.00
2022-10-02T17:52:19.257Z,72.70
2022-10-02T17:55:42.342Z,73.40
2022-10-02T17:58:16.837Z,74.20
2022-10-02T18:01:06.232Z,74.30
2022-10-02T18:04:07.926Z,74.40
2022-10-02T18:07:03.129Z,74.60
2022-10-02T18:09:42.120Z,74.50
2022-10-02T18:12:33.290Z,74.70
2022-10-02T18:15:39.694Z,74.70
2022-10-02T18:18:39.413Z,74.40
2022-10-02T18:21:42.162Z,73.60
2022-10-02T18:24:33.913Z,73.00
2022-10-02T18:27:28.488Z,73.30
2022-10-02T18:30:14.106Z,73.00
2022-10-02T18:32:44.554Z,73.10
2022-10-02T18:35:20.842Z,73.00
2022-10-02T18:37:58.885Z,73.20
2022-10-02T18:40:29.996Z,73.00
2022-10-02T18:43:12.441Z,73.50
2022-10-02T18:45:46.396Z,73.90
2022-10-02T18:48:31.970Z,72.60
2022-10-02T18:51:10.366Z,72.20
2022-10-02T18:53:43.138Z,72.00
2022-10-02T18:56:14.486Z,71.70
2022-10-02T18:59:13.785Z,71.50
2022-10-02T19:02:18.240Z,71.90
2022-10-02T19:05:02.798Z,72.10
2022-10-02T19:07:40.356Z,72.50
2022-10-02T19:10:30.262Z,72.40
2022-10-02T19:13:02.589Z,72.00
2022-10-02T19:15:36.636Z,71.90
2022-10-02T19:18:06.700Z,71.20
2022-10-02T19:20:40.825Z,71.40
2022-10-02T19:23:15.598Z,71.20
2022-10-02T19:25:50.581Z,71.00
2022-10-02T19:28:22.921Z,71.20
2022-10-02T19:30:53.590Z,70.90
2022-10-02T19:33:32.154Z,70.70
2022-10-02T19:36:04.292Z,71.00
2022-10-02T19:38:37.202Z,71.50
2022-10-02T19:41:11.246Z,71.70
2022-10-02T19:44:16.714Z,71.80
2022-10-02T19:46:48.470Z,72.60
2022-10-02T19:49:40.550Z,73.10
2022-10-02T19:52:33.228Z,72.90
2022-10-02T19:55:04.505Z,73.00
2022-10-02T19:57:38.246Z,73.30
2022-10-02T20:00:13.423Z,74.10
2022-10-02T20:02:46.092Z,74.00
2022-10-02T20:05:21.461Z,73.80
2022-10-02T20:07:51.593Z,73.80
2022-10-02T20:10:26.276Z,74.00
2022-10-02T20:13:17.813Z,74.00
2022-10-02T20:16:28.323Z,74.10
2022-10-02T20:18:58.455Z,74.00
2022-10-02T20:21:45.010Z,74.00
2022-10-02T20:24:37.902Z,74.10
2022-10-02T20:27:23.339Z,74.00
2022-10-02T20:30:00.906Z,73.90
2022-10-02T20:32:35.544Z,74.00
2022-10-02T20:35:16.163Z,73.40
2022-10-02T20:37:45.839Z,72.80
2022-10-02T20:40:18.558Z,72.80
2022-10-02T20:43:05.529Z,72.60
2022-10-02T20:45:48.844Z,72.30
2022-10-02T20:49:07.893Z,72.70
2022-10-02T20:51:48.244Z,73.10
2022-10-02T20:54:23.603Z,73.00
2022-10-02T20:57:11.391Z,72.90
2022-10-02T21:00:08.912Z,73.20
2022-10-02T21:03:02.073Z,72.50
2022-10-02T21:05:59.392Z,72.40
2022-10-02T21:08:39.761Z,72.60
2022-10-02T21:11:28.485Z,72.30
2022-10-02T21:14:42.071Z,72.40
2022-10-02T21:17:46.713Z,72.60
2022-10-02T21:20:50.228Z,72.70
2022-10-02T21:23:37.248Z,72.50
2022-10-02T21:26:50.158Z,72.60
2022-10-02T21:29:25.390Z,73.00
2022-10-02T21:31:58.492Z,72.90
2022-10-02T21:34:37.162Z,73.10
2022-10-02T21:37:33.954Z,73.60
2022-10-02T21:40:18.921Z,73.20
2022-10-02T21:43:04.759Z,73.20
2022-10-02T21:46:09.618Z,73.50
2022-10-02T21:48:48.475Z,73.60
2022-10-02T21:51:38.221Z,73.50
2022-10-02T21:54:26.887Z,73.50
2022-10-02T21:56:56.578Z,73.60
2022-10-02T22:00:07.053Z,74.20
2022-10-02T22:03:12.361Z,74.70
2022-10-02T22:06:23.293Z,74.70
2022-10-02T22:08:59.425Z,74.90
2022-10-02T22:11:44.059Z,75.10
2022-10-02T22:14:30.401Z,75.30
2022-10-02T22:17:09.089Z,75.40
2022-10-02T22:20:24.310Z,75.60
2022-10-02T22:23:15.085Z,75.40
2022-10-02T22:25:53.565Z,75.80
2022-10-02T22:28:41.956Z,75.70
2022-10-02T22:31:17.530Z,76.00
2022-10-02T22:34:10.572Z,76.00
2022-10-02T22:36:42.691Z,75.80
2022-10-02T22:39:15.202Z,76.20
2022-10-02T22:41:54.015Z,76.40
2022-10-02T22:44:30.188Z,76.70
2022-10-02T22:47:20.657Z,77.20
2022-10-02T22:49:53.227Z,77.00
2022-10-02T22:52:25.726Z,77.60
2022-10-02T22:55:01.898Z,77.70
2022-10-02T22:58:12.749Z,77.70
2022-10-02T23:01:01.763Z,78.20
2022-10-02T23:03:40.286Z,78.20
2022-10-02T23:06:14.407Z,78.30
2022-10-02T23:08:58.632Z,79.00
2022-10-02T23:11:37.937Z,78.90
2022-10-02T23:14:31.334Z,79.30
2022-10-02T23:17:27.254Z,80.10
2022-10-02T23:20:18.154Z,79.90
2022-10-02T23:23:01.317Z,80.00
2022-10-02T23:25:41.491Z,80.50
2022-10-02T23:28:23.781Z,80.50
2022-10-02T23:31:09.357Z,81.30
2022-10-02T23:33:58.652Z,81.00
2022-10-02T23:36:48.018Z,81.50
2022-10-02T23:39:46.060Z,81.50
2022-10-02T23:42:18.633Z,81.20
2022-10-02T23:45:13.150Z,80.50
2022-10-02T23:48:03.150Z,80.30
2022-10-02T23:50:47.892Z,80.40
2022-10-02T23:53:40.259Z,79.60
2022-10-02T23:56:40.195Z,79.20
2022-10-02T23:59:43.972Z,79.50
